createdAt,value
2018-10-11T00:00:12.964Z,16.92
2018-10-11T00:02:40.443Z,16.82
2018-10-11T00:05:07.904Z,17.06
2018-10-11T00:07:35.336Z,17.05
2018-10-11T00:10:02.779Z,17.01
2018-10-11T00:12:30.216Z,17.02
2018-10-11T00:14:57.653Z,16.84
2018-10-11T00:17:25.080Z,16.66
2018-10-11T00:19:52.603Z,16.77
2018-10-11T00:22:19.978Z,16.87
2018-10-11T00:24:47.412Z,16.93
2018-10-11T00:27:14.838Z,17.01
2018-10-11T00:29:42.267Z,16.99
2018-10-11T00:32:09.724Z,16.95
2018-10-11T00:34:37.164Z,16.92
2018-10-11T00:37:04.596Z,16.97
2018-10-11T00:39:32.012Z,17.02
2018-10-11T00:41:59.445Z,16.85
2018-10-11T00:44:26.873Z,16.84
2018-10-11T00:46:54.300Z,16.90
2018-10-11T00:49:21.756Z,16.85
2018-10-11T00:51:49.183Z,16.81
2018-10-11T00:54:16.600Z,16.64
2018-10-11T00:56:44.080Z,16.61
2018-10-11T00:59:11.934Z,16.71
2018-10-11T01:01:39.822Z,16.71
2018-10-11T01:04:07.244Z,16.71
2018-10-11T01:06:34.751Z,16.62
2018-10-11T01:09:02.179Z,16.67
2018-10-11T01:11:29.667Z,16.67
2018-10-11T01:13:57.092Z,16.58
2018-10-11T01:16:24.530Z,16.52
2018-10-11T01:18:52.052Z,16.47
2018-10-11T01:21:19.492Z,16.50
2018-10-11T01:23:47.093Z,16.42
2018-10-11T01:26:14.425Z,16.39
2018-10-11T01:28:41.944Z,16.41
2018-10-11T01:31:14.966Z,16.37
2018-10-11T01:33:42.386Z,16.38
2018-10-11T01:36:09.881Z,16.42
2018-10-11T01:38:37.369Z,16.40
2018-10-11T01:41:04.796Z,16.30
2018-10-11T01:43:32.224Z,16.40
2018-10-11T01:45:59.671Z,16.31
2018-10-11T01:48:27.168Z,16.37
2018-10-11T01:50:54.622Z,16.36
2018-10-11T01:53:22.057Z,16.31
2018-10-11T01:55:49.504Z,16.39
2018-10-11T01:58:16.992Z,16.33
2018-10-11T02:00:44.431Z,16.39
2018-10-11T02:03:11.860Z,16.41
2018-10-11T02:05:39.368Z,16.40
2018-10-11T02:08:06.817Z,16.45
2018-10-11T02:10:34.280Z,16.44
2018-10-11T02:13:01.740Z,16.45
2018-10-11T02:15:29.197Z,16.34
2018-10-11T02:17:57.242Z,16.32
2018-10-11T02:20:24.728Z,16.12
2018-10-11T02:22:52.160Z,16.10
2018-10-11T02:25:19.595Z,16.10
2018-10-11T02:27:47.089Z,15.99
2018-10-11T02:30:14.562Z,16.08
2018-10-11T02:32:42.500Z,16.02
2018-10-11T02:35:10.154Z,16.17
2018-10-11T02:37:37.591Z,16.03
2018-10-11T02:40:05.108Z,16.10
2018-10-11T02:42:32.544Z,16.11
2018-10-11T02:44:59.972Z,16.09
2018-10-11T02:47:27.459Z,15.94
2018-10-11T02:49:54.887Z,16.04
2018-10-11T02:52:22.312Z,16.05
2018-10-11T02:54:49.752Z,15.97
2018-10-11T02:57:17.188Z,15.87
2018-10-11T02:59:44.620Z,15.88
2018-10-11T03:02:13.172Z,15.77
2018-10-11T03:04:40.598Z,15.68
2018-10-11T03:07:08.027Z,15.78
2018-10-11T03:09:35.454Z,15.85
2018-10-11T03:12:02.945Z,15.82
2018-10-11T03:14:30.363Z,15.76
2018-10-11T03:16:57.795Z,15.71
2018-10-11T03:19:25.231Z,15.70
2018-10-11T03:21:52.676Z,15.66
2018-10-11T03:24:20.144Z,15.67
2018-10-11T03:26:47.544Z,15.65
2018-10-11T03:29:14.986Z,15.67
2018-10-11T03:31:42.424Z,15.64
2018-10-11T03:34:09.876Z,15.59
2018-10-11T03:36:37.312Z,15.60
2018-10-11T03:39:04.897Z,15.60
2018-10-11T03:41:32.372Z,15.61
2018-10-11T03:43:59.805Z,15.62
2018-10-11T03:46:27.240Z,15.60
2018-10-11T03:48:54.644Z,15.61
2018-10-11T03:51:22.063Z,15.58
2018-10-11T03:53:49.520Z,15.67
2018-10-11T03:56:17.050Z,15.67
2018-10-11T03:58:44.563Z,15.68
2018-10-11T04:01:12.008Z,15.56
2018-10-11T04:03:39.440Z,15.66
2018-10-11T04:06:06.872Z,15.56
2018-10-11T04:08:34.304Z,15.52
2018-10-11T04:11:01.748Z,15.51
2018-10-11T04:13:29.183Z,15.48
2018-10-11T04:15:56.633Z,15.46
2018-10-11T04:18:24.060Z,15.52
2018-10-11T04:20:51.483Z,15.43
2018-10-11T04:23:27.705Z,15.44
2018-10-11T04:25:55.192Z,15.44
2018-10-11T04:28:22.632Z,15.42
2018-10-11T04:30:50.048Z,15.43
2018-10-11T04:33:17.492Z,15.45
2018-10-11T04:35:44.916Z,15.52
2018-10-11T04:38:12.563Z,15.56
2018-10-11T04:40:40.220Z,15.52
2018-10-11T04:43:07.779Z,15.57
2018-10-11T04:45:35.071Z,15.51
2018-10-11T04:48:02.505Z,15.50
2018-10-11T04:50:29.928Z,15.48
2018-10-11T04:52:57.359Z,15.50
2018-10-11T04:55:24.885Z,15.48
2018-10-11T04:57:52.316Z,15.46
2018-10-11T05:00:19.741Z,15.43
2018-10-11T05:02:47.176Z,15.49
2018-10-11T05:05:14.628Z,15.54
2018-10-11T05:07:42.027Z,15.48
2018-10-11T05:10:09.607Z,15.35
2018-10-11T05:12:37.100Z,15.42
2018-10-11T05:15:04.523Z,15.45
2018-10-11T05:17:32.003Z,15.40
2018-10-11T05:19:59.376Z,15.52
2018-10-11T05:22:26.831Z,15.56
2018-10-11T05:24:54.263Z,15.64
2018-10-11T05:27:21.708Z,15.62
2018-10-11T05:29:49.136Z,15.63
2018-10-11T05:32:16.602Z,15.71
2018-10-11T05:34:43.994Z,15.70
2018-10-11T05:37:11.516Z,15.73
2018-10-11T05:39:38.946Z,15.71
2018-10-11T05:42:06.367Z,15.75
2018-10-11T05:44:33.907Z,15.75
2018-10-11T05:47:01.240Z,15.76
2018-10-11T05:49:28.698Z,15.82
2018-10-11T05:51:56.131Z,15.88
2018-10-11T05:54:23.568Z,15.91
2018-10-11T05:56:51.038Z,15.90
2018-10-11T05:59:18.420Z,15.97
2018-10-11T06:01:45.854Z,16.03
2018-10-11T06:04:13.308Z,16.11
2018-10-11T06:06:40.937Z,16.12
2018-10-11T06:09:08.359Z,16.13
2018-10-11T06:11:35.780Z,16.23
2018-10-11T06:14:03.219Z,16.22
2018-10-11T06:16:30.647Z,16.35
2018-10-11T06:18:58.072Z,16.38
2018-10-11T06:21:25.520Z,16.40
2018-10-11T06:23:52.951Z,16.41
2018-10-11T06:26:20.408Z,16.46
2018-10-11T06:28:47.836Z,16.53
2018-10-11T06:31:15.267Z,16.57
2018-10-11T06:33:43.831Z,16.63
2018-10-11T06:36:11.337Z,16.70
2018-10-11T06:38:38.683Z,16.73
2018-10-11T06:41:06.112Z,16.82
2018-10-11T06:43:33.544Z,16.93
2018-10-11T06:46:00.979Z,17.01
2018-10-11T06:48:28.408Z,17.09
2018-10-11T06:50:55.845Z,17.18
2018-10-11T06:53:23.264Z,17.29
2018-10-11T06:55:50.732Z,17.36
2018-10-11T06:58:18.156Z,17.46
2018-10-11T07:00:45.600Z,17.55
2018-10-11T07:03:13.019Z,17.67
2018-10-11T07:05:40.453Z,17.73
2018-10-11T07:08:07.875Z,17.81
2018-10-11T07:10:35.308Z,17.92
2018-10-11T07:13:02.728Z,18.00
2018-10-11T07:15:30.155Z,18.13
2018-10-11T07:17:57.583Z,18.20
2018-10-11T07:20:25.028Z,18.28
2018-10-11T07:22:52.585Z,18.32
2018-10-11T07:25:19.989Z,18.40
2018-10-11T07:27:47.411Z,18.48
2018-10-11T07:30:15.004Z,18.53
2018-10-11T07:32:42.432Z,18.61
2018-10-11T07:35:09.946Z,18.70
2018-10-11T07:37:37.291Z,18.83
2018-10-11T07:40:04.728Z,18.92
2018-10-11T07:42:32.168Z,18.97
2018-10-11T07:44:59.607Z,19.03
2018-10-11T07:47:27.019Z,19.03
2018-10-11T07:49:54.456Z,19.11
2018-10-11T07:52:21.877Z,19.27
2018-10-11T07:54:49.305Z,19.26
2018-10-11T07:57:16.727Z,19.40
2018-10-11T07:59:44.162Z,19.46
2018-10-11T08:02:11.584Z,19.54
2018-10-11T08:04:39.046Z,19.52
2018-10-11T08:07:06.491Z,19.58
2018-10-11T08:09:33.896Z,19.63
2018-10-11T08:12:01.517Z,19.72
2018-10-11T08:14:28.758Z,19.80
2018-10-11T08:16:56.288Z,19.87
2018-10-11T08:19:23.916Z,19.89
2018-10-11T08:21:51.052Z,20.08
2018-10-11T08:24:18.508Z,20.06
2018-10-11T08:26:45.959Z,20.21
2018-10-11T08:29:13.399Z,20.35
2018-10-11T08:31:40.837Z,20.35
2018-10-11T08:34:08.320Z,20.26
2018-10-11T08:36:35.749Z,20.49
2018-10-11T08:39:03.181Z,20.44
2018-10-11T08:41:30.600Z,20.39
2018-10-11T08:43:58.122Z,20.48
2018-10-11T08:46:25.533Z,20.50
2018-10-11T08:48:52.966Z,20.59
2018-10-11T08:51:20.400Z,20.71
2018-10-11T08:53:47.830Z,20.76
2018-10-11T08:56:15.261Z,20.93
2018-10-11T08:58:42.699Z,20.95
2018-10-11T09:01:10.137Z,21.00
2018-10-11T09:03:37.622Z,20.92
2018-10-11T09:06:04.996Z,21.12
2018-10-11T09:08:32.442Z,21.21
2018-10-11T09:10:59.953Z,21.16
2018-10-11T09:13:27.315Z,21.20
2018-10-11T09:15:54.755Z,21.33
2018-10-11T09:18:22.196Z,21.40
2018-10-11T09:20:49.619Z,21.63
2018-10-11T09:23:17.083Z,21.68
2018-10-11T09:25:44.489Z,21.49
2018-10-11T09:28:11.907Z,21.56
2018-10-11T09:30:39.343Z,21.76
2018-10-11T09:33:06.767Z,21.79
2018-10-11T09:35:34.197Z,21.82
2018-10-11T09:38:01.657Z,21.93
2018-10-11T09:40:29.075Z,21.96
2018-10-11T09:42:56.572Z,21.90
2018-10-11T09:45:24.136Z,21.90
2018-10-11T09:47:51.670Z,21.94
2018-10-11T09:50:19.102Z,22.01
2018-10-11T09:52:46.591Z,22.08
2018-10-11T09:55:14.009Z,22.03
2018-10-11T09:57:41.440Z,22.16
2018-10-11T10:00:14.140Z,22.35
2018-10-11T10:02:41.567Z,22.42
2018-10-11T10:05:08.987Z,22.52
2018-10-11T10:07:36.419Z,22.62
2018-10-11T10:10:03.965Z,22.81
2018-10-11T10:12:31.283Z,22.81
2018-10-11T10:14:58.703Z,22.88
2018-10-11T10:17:26.146Z,22.96
2018-10-11T10:19:53.576Z,22.96
2018-10-11T10:22:20.992Z,22.78
2018-10-11T10:24:48.429Z,22.85
2018-10-11T10:27:15.982Z,22.88
2018-10-11T10:29:43.271Z,22.94
2018-10-11T10:32:10.724Z,22.98
2018-10-11T10:34:38.159Z,22.98
2018-10-11T10:37:05.658Z,22.98
2018-10-11T10:39:33.079Z,23.08
2018-10-11T10:42:00.508Z,23.07
2018-10-11T10:44:27.936Z,23.19
2018-10-11T10:46:55.367Z,23.28
2018-10-11T10:49:22.767Z,23.39
2018-10-11T10:51:50.195Z,23.34
2018-10-11T10:54:23.152Z,23.43
2018-10-11T10:56:50.772Z,23.58
2018-10-11T10:59:18.199Z,23.65
2018-10-11T11:01:45.644Z,23.58
2018-10-11T11:04:13.067Z,23.68
2018-10-11T11:06:40.487Z,23.67
2018-10-11T11:09:07.973Z,23.58
2018-10-11T11:11:35.399Z,23.66
2018-10-11T11:14:02.827Z,23.67
2018-10-11T11:16:30.244Z,23.78
2018-10-11T11:18:57.720Z,23.78
2018-10-11T11:21:25.100Z,23.83
2018-10-11T11:23:52.533Z,23.83
2018-10-11T11:26:19.948Z,23.88
2018-10-11T11:28:47.381Z,24.00
2018-10-11T11:31:14.796Z,23.96
2018-10-11T11:33:42.216Z,23.92
2018-10-11T11:36:09.644Z,23.93
2018-10-11T11:38:37.066Z,23.94
2018-10-11T11:41:04.479Z,24.02
2018-10-11T11:43:31.923Z,24.07
2018-10-11T11:45:59.398Z,24.15
2018-10-11T11:48:26.769Z,24.20
2018-10-11T11:50:54.195Z,24.18
2018-10-11T11:53:21.644Z,24.29
2018-10-11T11:55:49.055Z,24.25
2018-10-11T11:58:16.518Z,24.32
2018-10-11T12:00:43.946Z,24.22
2018-10-11T12:03:11.385Z,24.25
2018-10-11T12:05:38.801Z,24.26
2018-10-11T12:08:06.236Z,24.28
2018-10-11T12:10:33.714Z,24.39
2018-10-11T12:13:05.437Z,24.43
2018-10-11T12:15:33.510Z,24.45
2018-10-11T12:18:02.031Z,24.48
2018-10-11T12:20:30.767Z,24.52
2018-10-11T12:22:59.255Z,24.50
2018-10-11T12:25:27.031Z,24.44
2018-10-11T12:27:54.491Z,24.54
2018-10-11T12:30:21.919Z,24.48
2018-10-11T12:32:49.387Z,24.58
2018-10-11T12:35:18.292Z,24.64
2018-10-11T12:37:45.960Z,24.61
2018-10-11T12:40:13.616Z,24.59
2018-10-11T12:42:41.369Z,24.49
2018-10-11T12:45:09.471Z,24.48
2018-10-11T12:47:37.112Z,24.51
2018-10-11T12:50:04.568Z,24.49
2018-10-11T12:52:31.982Z,24.44
2018-10-11T12:54:59.446Z,24.42
2018-10-11T12:57:26.867Z,24.41
2018-10-11T12:59:54.291Z,24.37
2018-10-11T13:02:21.719Z,24.43
2018-10-11T13:04:49.727Z,24.43
2018-10-11T13:07:17.161Z,24.38
2018-10-11T13:09:44.595Z,24.60
2018-10-11T13:12:12.021Z,24.57
2018-10-11T13:14:39.453Z,24.49
2018-10-11T13:17:06.870Z,24.52
2018-10-11T13:19:34.300Z,24.51
2018-10-11T13:22:01.730Z,24.50
2018-10-11T13:24:29.157Z,24.58
2018-10-11T13:26:56.664Z,24.54
2018-10-11T13:29:24.051Z,24.47
2018-10-11T13:31:51.473Z,24.59
2018-10-11T13:34:18.899Z,24.53
2018-10-11T13:36:46.592Z,24.42
2018-10-11T13:39:14.027Z,24.40
2018-10-11T13:41:41.939Z,24.37
2018-10-11T13:44:09.224Z,24.36
2018-10-11T13:46:36.639Z,24.40
2018-10-11T13:49:04.067Z,24.38
2018-10-11T13:51:31.487Z,24.50
2018-10-11T13:53:58.987Z,24.38
2018-10-11T13:56:26.952Z,24.39
2018-10-11T13:58:54.420Z,24.38
2018-10-11T14:01:21.804Z,24.31
2018-10-11T14:03:49.225Z,24.37
2018-10-11T14:06:17.704Z,24.39
2018-10-11T14:08:45.112Z,24.29
2018-10-11T14:11:12.532Z,24.36
2018-10-11T14:13:40.377Z,24.25
2018-10-11T14:16:07.795Z,24.19
2018-10-11T14:18:35.595Z,24.20
2018-10-11T14:21:03.015Z,24.11
2018-10-11T14:23:30.535Z,24.16
2018-10-11T14:25:58.087Z,24.07
2018-10-11T14:28:25.508Z,24.15
2018-10-11T14:30:52.948Z,24.15
2018-10-11T14:33:20.657Z,24.21
2018-10-11T14:35:48.116Z,24.16
2018-10-11T14:38:15.535Z,24.21
2018-10-11T14:40:43.016Z,24.17
2018-10-11T14:43:10.434Z,24.07
2018-10-11T14:45:37.860Z,23.91
2018-10-11T14:48:05.280Z,24.02
2018-10-11T14:50:32.720Z,24.04
2018-10-11T14:53:00.147Z,23.97
2018-10-11T14:55:27.580Z,23.94
2018-10-11T14:57:55.007Z,23.91
2018-10-11T15:00:22.441Z,23.95
2018-10-11T15:02:49.877Z,24.01
2018-10-11T15:05:17.327Z,23.92
2018-10-11T15:07:44.731Z,23.94
2018-10-11T15:10:12.184Z,23.73
2018-10-11T15:12:39.573Z,23.73
2018-10-11T15:15:06.999Z,23.67
2018-10-11T15:17:34.416Z,23.65
2018-10-11T15:20:01.872Z,23.49
2018-10-11T15:22:29.306Z,23.39
2018-10-11T15:24:56.729Z,23.35
2018-10-11T15:27:24.416Z,23.36
2018-10-11T15:29:51.904Z,23.31
2018-10-11T15:32:19.327Z,23.10
2018-10-11T15:34:46.777Z,23.05
2018-10-11T15:37:14.170Z,22.94
2018-10-11T15:39:41.604Z,22.86
2018-10-11T15:42:09.039Z,22.90
2018-10-11T15:44:36.461Z,22.80
2018-10-11T15:47:03.889Z,22.59
2018-10-11T15:49:31.308Z,22.46
2018-10-11T15:51:58.750Z,22.35
2018-10-11T15:54:26.171Z,22.31
2018-10-11T15:56:53.617Z,22.13
2018-10-11T15:59:21.032Z,22.35
2018-10-11T16:01:48.462Z,22.30
2018-10-11T16:04:15.879Z,22.20
2018-10-11T16:06:43.324Z,22.25
2018-10-11T16:09:11.104Z,22.16
2018-10-11T16:11:38.527Z,22.07
2018-10-11T16:14:05.978Z,21.95
2018-10-11T16:16:33.511Z,21.87
2018-10-11T16:19:00.937Z,21.75
2018-10-11T16:21:28.692Z,21.69
2018-10-11T16:23:56.109Z,21.89
2018-10-11T16:26:23.539Z,21.78
2018-10-11T16:28:50.964Z,21.63
2018-10-11T16:31:18.402Z,21.51
2018-10-11T16:33:45.980Z,21.46
2018-10-11T16:36:13.407Z,21.45
2018-10-11T16:38:40.821Z,21.40
2018-10-11T16:41:08.247Z,21.31
2018-10-11T16:43:35.665Z,21.29
2018-10-11T16:46:03.095Z,21.24
2018-10-11T16:48:30.520Z,21.10
2018-10-11T16:50:57.943Z,21.03
2018-10-11T16:53:25.351Z,20.93
2018-10-11T16:55:52.775Z,21.06
2018-10-11T16:58:20.199Z,21.13
2018-10-11T17:00:47.625Z,21.00
2018-10-11T17:03:15.055Z,20.71
2018-10-11T17:05:42.472Z,20.78
2018-10-11T17:08:09.909Z,20.72
2018-10-11T17:10:37.338Z,20.52
2018-10-11T17:13:04.755Z,20.53
2018-10-11T17:15:32.167Z,20.60
2018-10-11T17:17:59.584Z,20.54
2018-10-11T17:20:26.996Z,20.35
2018-10-11T17:22:54.431Z,20.49
2018-10-11T17:25:21.860Z,20.26
2018-10-11T17:27:49.298Z,20.20
2018-10-11T17:30:16.712Z,20.18
2018-10-11T17:32:44.168Z,20.08
2018-10-11T17:35:11.572Z,19.92
2018-10-11T17:37:38.988Z,19.61
2018-10-11T17:40:06.420Z,19.60
2018-10-11T17:42:33.861Z,19.45
2018-10-11T17:45:01.273Z,19.39
2018-10-11T17:47:28.695Z,19.32
2018-10-11T17:49:56.125Z,19.41
2018-10-11T17:52:23.541Z,19.23
2018-10-11T17:54:51.873Z,19.08
2018-10-11T17:57:19.336Z,19.20
2018-10-11T17:59:47.094Z,19.01
2018-10-11T18:02:14.517Z,18.74
2018-10-11T18:04:42.080Z,18.59
2018-10-11T18:07:09.509Z,18.42
2018-10-11T18:09:36.930Z,18.15
2018-10-11T18:12:04.374Z,18.32
2018-10-11T18:14:31.799Z,18.17
2018-10-11T18:16:59.267Z,18.06
2018-10-11T18:19:26.671Z,18.09
2018-10-11T18:21:54.104Z,17.68
2018-10-11T18:24:21.524Z,17.46
2018-10-11T18:26:48.948Z,17.40
2018-10-11T18:29:16.474Z,17.18
2018-10-11T18:31:43.811Z,17.32
2018-10-11T18:34:11.240Z,17.35
2018-10-11T18:36:38.662Z,17.12
2018-10-11T18:39:06.084Z,17.18
2018-10-11T18:41:33.511Z,17.03
2018-10-11T18:44:00.940Z,17.08
2018-10-11T18:46:28.368Z,16.77
2018-10-11T18:48:55.800Z,16.89
2018-10-11T18:51:23.211Z,16.66
2018-10-11T18:53:50.646Z,16.77
2018-10-11T18:56:18.070Z,16.78
2018-10-11T18:58:45.513Z,16.79
2018-10-11T19:01:12.927Z,17.02
2018-10-11T19:03:40.351Z,16.91
2018-10-11T19:06:07.777Z,17.04
2018-10-11T19:08:35.208Z,16.97
2018-10-11T19:11:02.628Z,17.15
2018-10-11T19:13:30.060Z,17.64
2018-10-11T19:15:57.484Z,17.65
2018-10-11T19:18:24.935Z,17.50
2018-10-11T19:20:52.445Z,17.47
2018-10-11T19:23:19.805Z,17.13
2018-10-11T19:25:48.219Z,17.14
2018-10-11T19:28:15.656Z,17.07
2018-10-11T19:30:43.094Z,17.08
2018-10-11T19:33:10.513Z,17.05
2018-10-11T19:35:37.948Z,16.96
2018-10-11T19:38:05.378Z,17.10
2018-10-11T19:40:32.792Z,17.17
2018-10-11T19:43:00.215Z,17.21
2018-10-11T19:45:27.650Z,17.32
2018-10-11T19:47:55.082Z,17.52
2018-10-11T19:50:22.504Z,17.61
2018-10-11T19:52:49.928Z,17.79
2018-10-11T19:55:17.358Z,17.77
2018-10-11T19:57:44.788Z,18.05
2018-10-11T20:00:12.248Z,18.18
2018-10-11T20:02:39.689Z,18.23
2018-10-11T20:05:07.128Z,18.26
2018-10-11T20:07:34.561Z,18.24
2018-10-11T20:10:01.996Z,18.36
2018-10-11T20:12:29.416Z,18.29
2018-10-11T20:14:56.860Z,18.08
2018-10-11T20:17:24.350Z,18.09
2018-10-11T20:19:51.735Z,17.92
2018-10-11T20:24:52.965Z,17.67
2018-10-11T20:27:20.396Z,17.76
2018-10-11T20:29:47.828Z,18.03
2018-10-11T20:32:15.260Z,17.97
2018-10-11T20:34:42.676Z,17.83
2018-10-11T20:37:10.102Z,18.06
2018-10-11T20:39:37.530Z,18.28
2018-10-11T20:42:04.947Z,18.46
2018-10-11T20:44:32.389Z,18.45
2018-10-11T20:46:59.828Z,18.53
2018-10-11T20:49:27.259Z,18.48
2018-10-11T20:51:54.704Z,18.65
2018-10-11T20:54:22.148Z,18.64
2018-10-11T20:56:49.584Z,18.73
2018-10-11T20:59:17.006Z,18.66
2018-10-11T21:01:44.423Z,18.69
2018-10-11T21:04:11.877Z,18.75
2018-10-11T21:06:39.308Z,18.78
2018-10-11T21:09:06.756Z,18.73
2018-10-11T21:11:34.224Z,18.62
2018-10-11T21:14:01.612Z,18.61
2018-10-11T21:16:29.035Z,18.58
2018-10-11T21:18:56.469Z,18.66
2018-10-11T21:21:23.884Z,18.60
2018-10-11T21:23:51.318Z,18.53
2018-10-11T21:26:18.772Z,18.51
2018-10-11T21:28:46.172Z,18.45
2018-10-11T21:31:13.597Z,18.47
2018-10-11T21:33:41.011Z,18.42
2018-10-11T21:36:08.440Z,18.38
2018-10-11T21:38:35.931Z,18.40
2018-10-11T21:41:03.364Z,18.42
2018-10-11T21:43:30.787Z,18.38
2018-10-11T21:45:58.215Z,18.30
2018-10-11T21:48:25.661Z,18.15
2018-10-11T21:50:53.101Z,18.23
2018-10-11T21:53:20.517Z,18.29
2018-10-11T21:55:47.944Z,18.26
2018-10-11T21:58:15.456Z,18.25
2018-10-11T22:00:48.331Z,18.05
2018-10-11T22:03:15.743Z,17.97
2018-10-11T22:05:43.240Z,17.90
2018-10-11T22:08:10.763Z,17.85
2018-10-11T22:10:39.919Z,17.76
2018-10-11T22:13:07.330Z,17.74
2018-10-11T22:15:34.752Z,17.67
2018-10-11T22:18:02.179Z,17.58
2018-10-11T22:20:29.608Z,17.46
2018-10-11T22:22:57.027Z,17.38
2018-10-11T22:25:24.707Z,17.32
2018-10-11T22:27:52.358Z,17.30
2018-10-11T22:30:19.804Z,17.25
2018-10-11T22:32:47.224Z,17.19
2018-10-11T22:35:14.660Z,17.04
2018-10-11T22:37:42.096Z,17.12
2018-10-11T22:40:09.603Z,17.08
2018-10-11T22:42:37.019Z,16.94
2018-10-11T22:45:04.448Z,16.89
2018-10-11T22:47:31.883Z,16.76
2018-10-11T22:49:59.320Z,16.70
2018-10-11T22:52:26.744Z,16.67
2018-10-11T22:54:54.180Z,16.71
2018-10-11T22:57:21.609Z,16.67
2018-10-11T22:59:49.054Z,16.70
2018-10-11T23:02:16.488Z,16.77
2018-10-11T23:04:43.911Z,16.74
2018-10-11T23:07:11.592Z,16.66
2018-10-11T23:09:39.025Z,16.65
2018-10-11T23:12:06.543Z,16.70
2018-10-11T23:14:33.985Z,16.73
2018-10-11T23:17:01.417Z,16.57
2018-10-11T23:19:28.860Z,16.49
2018-10-11T23:21:56.291Z,16.59
2018-10-11T23:24:23.717Z,16.41
2018-10-11T23:26:51.151Z,16.44
2018-10-11T23:29:18.599Z,16.47
2018-10-11T23:31:46.024Z,16.47
2018-10-11T23:34:13.440Z,16.32
2018-10-11T23:36:40.875Z,16.01
2018-10-11T23:39:08.311Z,15.87
2018-10-11T23:41:35.739Z,15.64
2018-10-11T23:44:03.164Z,15.59
2018-10-11T23:46:30.591Z,15.46
2018-10-11T23:48:58.020Z,15.38
2018-10-11T23:51:25.449Z,15.29
2018-10-11T23:53:52.887Z,15.24
2018-10-11T23:56:20.323Z,15.15
2018-10-11T23:58:47.752Z,15.11
